Time;durP1;ratioP1;P1;durP2;ratioP2;P2;SDS_P1;SDS_P2;PMS_P1;PMS_P2;Temp;Humidity;BMP_temperature;BMP_pressure;BME280_temperature;BME280_humidity;BME280_pressure;Samples;Min_cycle;Max_cycle;Signal;HPM_P1;HPM_P2
2022/08/30 00:01:33;;;;;;;2.83;1.10;;;22.40;53.00;;;;;;5031326;28;20061;-81
2022/08/30 00:04:00;;;;;;;1.42;1.10;;;22.40;53.20;;;;;;5031075;28;20032;-81
2022/08/30 00:06:28;;;;;;;1.27;1.10;;;22.40;53.10;;;;;;5030088;28;20022;-81
2022/08/30 00:08:55;;;;;;;1.83;1.30;;;22.30;53.10;;;;;;5033344;28;20112;-81
2022/08/30 00:11:24;;;;;;;3.28;1.30;;;22.30;53.20;;;;;;5031964;28;20037;-80
2022/08/30 00:13:53;;;;;;;1.25;1.17;;;22.30;53.20;;;;;;5031169;28;20530;-81
2022/08/30 00:16:20;;;;;;;2.65;1.30;;;22.30;53.30;;;;;;5012564;28;20033;-80
2022/08/30 00:18:47;;;;;;;1.83;1.30;;;22.20;53.30;;;;;;5013587;28;20108;-83
2022/08/30 00:21:13;;;;;;;1.50;1.38;;;22.20;53.30;;;;;;5031723;28;20032;-81
2022/08/30 00:23:40;;;;;;;1.50;1.40;;;22.20;53.40;;;;;;5031832;28;20037;-81
2022/08/30 00:26:07;;;;;;;1.85;1.20;;;22.20;53.40;;;;;;5013663;28;20030;-82
2022/08/30 00:28:33;;;;;;;2.65;1.50;;;22.20;53.40;;;;;;5032101;28;20469;-81
2022/08/30 00:31:00;;;;;;;1.30;1.20;;;22.10;53.40;;;;;;5032123;28;20105;-81
2022/08/30 00:33:27;;;;;;;1.50;1.23;;;22.10;53.50;;;;;;5033843;28;20682;-81
2022/08/30 00:35:54;;;;;;;1.50;1.40;;;22.10;53.50;;;;;;5029564;28;20025;-81
2022/08/30 00:38:21;;;;;;;1.90;1.30;;;22.10;53.50;;;;;;5031037;28;20052;-81
2022/08/30 00:40:48;;;;;;;1.25;1.15;;;22.10;53.50;;;;;;4993818;28;20508;-83
2022/08/30 00:43:21;;;;;;;1.98;1.38;;;22.00;53.50;;;;;;5030668;28;20046;-82
2022/08/30 00:45:49;;;;;;;1.88;1.48;;;22.00;53.50;;;;;;5029858;28;20022;-81
2022/08/30 00:48:15;;;;;;;1.50;1.40;;;22.00;53.50;;;;;;5029921;28;20026;-81
2022/08/30 00:50:52;;;;;;;1.42;1.20;;;22.00;53.50;;;;;;5031213;28;20497;-81
2022/08/30 00:53:25;;;;;;;2.38;1.40;;;22.00;53.60;;;;;;5028692;28;20021;-82
2022/08/30 00:55:53;;;;;;;1.58;1.20;;;22.00;53.60;;;;;;5044523;28;20025;-81
2022/08/30 00:58:23;;;;;;;2.13;1.20;;;21.90;53.50;;;;;;5030763;28;20053;-81
2022/08/30 01:00:53;;;;;;;1.77;1.50;;;21.90;53.60;;;;;;5035278;28;20029;-84
2022/08/30 01:03:20;;;;;;;1.33;1.23;;;21.90;53.60;;;;;;5036406;28;20057;-80
2022/08/30 01:05:48;;;;;;;2.55;1.42;;;21.90;53.70;;;;;;5015587;28;20029;-81
2022/08/30 01:08:14;;;;;;;1.30;1.20;;;21.90;53.70;;;;;;5030970;28;20057;-80
2022/08/30 01:10:41;;;;;;;1.80;1.27;;;21.80;53.70;;;;;;5013912;28;20423;-81
2022/08/30 01:13:08;;;;;;;1.98;1.40;;;21.80;53.70;;;;;;5030634;28;20029;-81
2022/08/30 01:15:34;;;;;;;2.03;1.40;;;21.80;53.80;;;;;;5029387;28;20083;-81
2022/08/30 01:18:02;;;;;;;1.83;1.33;;;21.80;53.80;;;;;;5013752;28;20021;-80
2022/08/30 01:20:36;;;;;;;1.63;1.38;;;21.80;53.80;;;;;;5031115;28;20029;-80
2022/08/30 01:23:02;;;;;;;;;;;21.80;53.90;;;;;;5031666;28;20116;-80
2022/08/30 01:25:29;;;;;;;1.52;1.38;;;21.70;53.70;;;;;;5054266;28;19927;-81
2022/08/30 01:28:06;;;;;;;1.80;1.48;;;21.70;53.70;;;;;;5039776;28;20108;-81
2022/08/30 01:30:33;;;;;;;1.52;1.30;;;21.70;53.90;;;;;;5035928;28;20029;-81
2022/08/30 01:33:02;;;;;;;2.25;1.30;;;21.60;53.90;;;;;;5015737;28;20026;-81
2022/08/30 01:35:32;;;;;;;1.58;1.20;;;21.60;54.00;;;;;;5027815;28;20075;-80
2022/08/30 01:37:58;;;;;;;1.65;1.20;;;21.60;54.00;;;;;;5015417;28;20514;-81
2022/08/30 01:40:24;;;;;;;1.67;1.40;;;21.60;54.00;;;;;;5031445;28;20100;-82
2022/08/30 01:42:50;;;;;;;1.50;1.40;;;21.60;54.10;;;;;;5030455;28;20038;-80
2022/08/30 01:45:16;;;;;;;1.83;1.30;;;21.50;54.00;;;;;;5014433;28;20083;-84
2022/08/30 01:47:41;;;;;;;2.60;1.42;;;21.60;54.20;;;;;;5031807;28;20470;-81
2022/08/30 01:50:08;;;;;;;1.67;1.30;;;21.50;54.20;;;;;;5029849;28;20033;-80
2022/08/30 01:52:34;;;;;;;1.60;1.38;;;21.50;54.20;;;;;;5030008;28;20036;-81
2022/08/30 01:55:00;;;;;;;1.60;1.38;;;21.50;54.30;;;;;;4996505;28;20037;-81
2022/08/30 01:57:27;;;;;;;2.15;1.30;;;21.50;54.20;;;;;;5015601;28;20034;-82
2022/08/30 01:59:53;;;;;;;1.45;1.35;;;21.40;54.20;;;;;;5032111;28;20057;-84
2022/08/30 02:02:25;;;;;;;2.20;1.23;;;21.40;54.30;;;;;;5032335;28;20095;-81
2022/08/30 02:04:52;;;;;;;2.13;1.45;;;21.40;54.30;;;;;;5032580;28;20021;-79
2022/08/30 02:07:19;;;;;;;1.75;1.52;;;21.40;55.00;;;;;;5033219;28;20450;-80
2022/08/30 02:09:45;;;;;;;1.38;1.27;;;21.40;54.40;;;;;;5032187;28;20033;-80
2022/08/30 02:12:11;;;;;;;1.52;1.40;;;21.40;54.40;;;;;;5016194;28;20060;-82
2022/08/30 02:14:38;;;;;;;1.50;1.40;;;21.30;54.40;;;;;;5032356;28;20040;-83
2022/08/30 02:17:06;;;;;;;2.03;1.40;;;21.30;54.40;;;;;;5015583;28;20458;-82
2022/08/30 02:19:32;;;;;;;1.40;1.30;;;21.30;54.50;;;;;;5032696;28;20040;-80
2022/08/30 02:21:57;;;;;;;1.75;1.27;;;21.30;54.50;;;;;;5037245;28;20034;-81
2022/08/30 02:24:23;;;;;;;1.50;1.40;;;21.30;54.60;;;;;;5019766;28;20467;-81
2022/08/30 02:26:51;;;;;;;1.45;1.30;;;21.30;54.60;;;;;;5036311;28;20405;-81
2022/08/30 02:29:17;;;;;;;1.60;1.50;;;21.20;54.60;;;;;;5036070;28;20036;-80
2022/08/30 02:31:43;;;;;;;2.00;1.42;;;21.20;54.60;;;;;;5036099;28;20025;-80
2022/08/30 02:34:08;;;;;;;1.52;1.42;;;21.20;54.70;;;;;;5036871;28;20033;-82
2022/08/30 02:36:34;;;;;;;1.63;1.33;;;21.20;54.70;;;;;;5035859;28;20083;-80
2022/08/30 02:39:00;;;;;;;1.50;1.40;;;21.20;54.70;;;;;;5020094;28;20529;-80
2022/08/30 02:41:25;;;;;;;2.20;1.35;;;21.20;54.80;;;;;;5019653;28;20116;-80
2022/08/30 02:43:57;;;;;;;1.48;1.38;;;21.20;54.80;;;;;;5019688;28;20034;-79
2022/08/30 02:46:22;;;;;;;1.50;1.33;;;21.10;54.80;;;;;;5020425;28;20083;-80
2022/08/30 02:48:48;;;;;;;1.80;1.45;;;21.10;54.80;;;;;;5036725;28;20030;-84
2022/08/30 02:51:14;;;;;;;1.98;1.38;;;21.10;54.80;;;;;;5035422;28;20041;-80
2022/08/30 02:53:42;;;;;;;1.95;1.60;;;21.10;54.90;;;;;;5019247;28;20060;-78
2022/08/30 02:56:09;;;;;;;1.55;1.45;;;21.10;55.00;;;;;;5019400;28;20397;-79
2022/08/30 02:58:36;;;;;;;2.53;1.45;;;21.10;54.90;;;;;;5035989;28;20045;-79
2022/08/30 03:01:04;;;;;;;1.75;1.40;;;21.10;55.00;;;;;;5035461;28;20037;-80
2022/08/30 03:03:30;;;;;;;1.45;1.35;;;21.10;55.00;;;;;;5019242;28;20026;-80
2022/08/30 03:05:56;;;;;;;1.90;1.70;;;21.00;55.00;;;;;;5002985;28;20077;-81
2022/08/30 03:08:22;;;;;;;1.45;1.35;;;21.00;55.10;;;;;;5018993;28;20030;-80
2022/08/30 03:10:48;;;;;;;1.65;1.52;;;21.00;55.10;;;;;;5035245;28;20437;-80
2022/08/30 03:13:14;;;;;;;1.42;1.33;;;21.00;55.80;;;;;;5035427;28;20036;-79
2022/08/30 03:15:40;;;;;;;1.75;1.63;;;21.00;55.20;;;;;;5018630;28;20402;-83
2022/08/30 03:18:06;;;;;;;1.50;1.40;;;21.00;55.20;;;;;;5018587;28;20391;-82
2022/08/30 03:20:33;;;;;;;2.53;1.67;;;20.90;55.20;;;;;;5035079;28;20041;-81
2022/08/30 03:23:00;;;;;;;2.53;1.67;;;20.90;55.30;;;;;;5034992;28;20030;-81
2022/08/30 03:25:26;;;;;;;3.80;1.65;;;20.90;55.40;;;;;;5035262;28;20117;-81
2022/08/30 03:27:52;;;;;;;2.00;1.55;;;20.90;55.40;;;;;;5018445;28;20053;-83
2022/08/30 03:30:19;;;;;;;1.75;1.58;;;20.90;55.40;;;;;;5035074;28;20044;-80
2022/08/30 03:32:46;;;;;;;1.58;1.48;;;20.90;55.40;;;;;;5018187;28;20497;-81
2022/08/30 03:35:13;;;;;;;2.15;1.60;;;20.90;55.50;;;;;;5034742;28;20109;-82
2022/08/30 03:37:40;;;;;;;1.75;1.60;;;20.90;55.50;;;;;;5017627;28;20034;-84
2022/08/30 03:40:07;;;;;;;2.30;1.63;;;20.80;55.40;;;;;;5018023;28;20065;-85
2022/08/30 03:42:34;;;;;;;1.88;1.60;;;20.80;55.50;;;;;;5035545;28;20128;-81
2022/08/30 03:45:01;;;;;;;1.90;1.70;;;20.80;55.50;;;;;;5034797;28;20038;-81
2022/08/30 03:47:27;;;;;;;1.88;1.63;;;20.80;55.60;;;;;;5019006;28;20518;-81
2022/08/30 03:49:54;;;;;;;2.00;1.63;;;20.70;55.50;;;;;;5018111;28;20064;-81
2022/08/30 03:52:19;;;;;;;1.75;1.50;;;20.80;55.60;;;;;;5034761;28;20075;-83
2022/08/30 03:54:45;;;;;;;1.50;1.40;;;20.80;55.60;;;;;;5017795;28;20029;-78
2022/08/30 03:57:11;;;;;;;1.83;1.52;;;20.70;55.60;;;;;;5035244;28;20112;-82
2022/08/30 03:59:37;;;;;;;2.28;1.77;;;20.70;55.60;;;;;;5017684;28;20401;-82
2022/08/30 04:02:03;;;;;;;2.00;1.63;;;20.70;55.60;;;;;;5017964;28;20049;-80
2022/08/30 04:04:29;;;;;;;2.00;1.58;;;20.70;55.60;;;;;;5034655;28;20025;-79
2022/08/30 04:06:55;;;;;;;2.15;1.67;;;20.60;55.60;;;;;;5017774;28;20041;-81
2022/08/30 04:09:21;;;;;;;2.67;1.75;;;20.70;55.70;;;;;;5018408;28;20433;-81
2022/08/30 04:11:47;;;;;;;1.50;1.40;;;20.60;55.70;;;;;;5017648;28;20044;-81
2022/08/30 04:14:13;;;;;;;2.25;1.60;;;20.60;55.70;;;;;;5034263;28;20037;-82
2022/08/30 04:16:38;;;;;;;1.98;1.77;;;20.60;55.70;;;;;;5017478;28;20397;-81
2022/08/30 04:19:04;;;;;;;1.75;1.60;;;20.60;55.70;;;;;;5017489;28;20126;-82
2022/08/30 04:21:30;;;;;;;2.40;1.70;;;20.60;55.70;;;;;;5034563;28;20045;-88
2022/08/30 04:23:56;;;;;;;1.73;1.52;;;20.60;55.80;;;;;;5034154;28;20041;-83
2022/08/30 04:26:22;;;;;;;1.67;1.50;;;20.60;55.80;;;;;;5017205;28;20029;-80
2022/08/30 04:28:48;;;;;;;2.50;1.60;;;20.50;55.80;;;;;;5033663;28;20057;-82
2022/08/30 04:31:15;;;;;;;2.33;1.70;;;20.50;55.80;;;;;;5017079;28;20111;-81
2022/08/30 04:33:42;;;;;;;1.50;1.40;;;20.50;55.80;;;;;;5035352;28;20088;-80
2022/08/30 04:36:08;;;;;;;1.73;1.50;;;20.50;55.90;;;;;;5033742;28;20029;-84
2022/08/30 04:38:36;;;;;;;2.10;1.63;;;20.50;55.90;;;;;;5017340;28;20136;-82
2022/08/30 04:41:07;;;;;;;1.52;1.40;;;20.50;56.00;;;;;;5033790;28;20071;-80
2022/08/30 04:43:33;;;;;;;1.48;1.38;;;20.50;56.00;;;;;;5033367;28;20021;-81
2022/08/30 04:45:58;;;;;;;1.70;1.50;;;20.40;55.90;;;;;;5000716;28;20033;-83
2022/08/30 04:48:24;;;;;;;2.20;1.90;;;20.40;55.90;;;;;;5017628;28;20111;-82
2022/08/30 04:50:50;;;;;;;1.77;1.58;;;20.40;56.00;;;;;;5000707;28;20393;-82
2022/08/30 04:53:16;;;;;;;2.00;1.42;;;20.40;56.00;;;;;;5016992;28;20065;-83
2022/08/30 04:55:42;;;;;;;2.35;1.65;;;20.40;56.10;;;;;;5034474;28;20029;-82
2022/08/30 04:58:10;;;;;;;2.50;1.60;;;20.40;56.10;;;;;;5017166;28;20557;-82
2022/08/30 05:00:36;;;;;;;1.70;1.42;;;20.40;56.10;;;;;;5034459;28;20033;-83
2022/08/30 05:03:03;;;;;;;1.50;1.40;;;20.30;56.10;;;;;;5034600;28;20033;-82
2022/08/30 05:05:41;;;;;;;1.95;1.60;;;20.40;56.20;;;;;;5033291;28;20032;-84
2022/08/30 05:08:10;;;;;;;1.45;1.35;;;20.40;56.20;;;;;;5018310;28;20033;-80
2022/08/30 05:10:45;;;;;;;1.58;1.48;;;20.30;56.20;;;;;;5016642;28;20033;-83
2022/08/30 05:13:11;;;;;;;1.60;1.40;;;20.30;56.20;;;;;;5033358;28;20038;-82
2022/08/30 05:15:39;;;;;;;1.80;1.48;;;20.30;56.20;;;;;;5034413;28;20029;-83
2022/08/30 05:18:06;;;;;;;1.42;1.30;;;20.30;56.30;;;;;;5032608;28;20107;-80
2022/08/30 05:20:34;;;;;;;1.75;1.40;;;20.30;56.30;;;;;;5032967;28;20021;-82
2022/08/30 05:22:59;;;;;;;1.73;1.50;;;20.20;56.30;;;;;;5032979;28;20041;-83
2022/08/30 05:25:28;;;;;;;1.40;1.30;;;20.30;56.30;;;;;;5016904;28;20109;-82
2022/08/30 05:27:54;;;;;;;1.77;1.42;;;20.20;56.30;;;;;;5032856;28;20124;-83
2022/08/30 05:30:22;;;;;;;1.50;1.40;;;20.20;56.30;;;;;;5016206;28;20038;-81
2022/08/30 05:32:48;;;;;;;1.52;1.30;;;20.20;56.30;;;;;;5032759;28;20029;-81
2022/08/30 05:35:16;;;;;;;1.40;1.30;;;20.20;56.40;;;;;;5016918;28;20119;-81
2022/08/30 05:37:42;;;;;;;1.80;1.50;;;20.20;56.40;;;;;;5032290;28;20040;-82
2022/08/30 05:40:09;;;;;;;1.85;1.48;;;20.20;56.40;;;;;;5016316;28;20112;-80
2022/08/30 05:42:36;;;;;;;1.50;1.40;;;20.20;56.40;;;;;;5016755;28;20087;-82
2022/08/30 05:45:03;;;;;;;2.53;1.55;;;20.20;56.40;;;;;;5033660;28;20110;-81
2022/08/30 05:47:29;;;;;;;1.40;1.25;;;20.20;56.50;;;;;;5016231;28;20343;-81
2022/08/30 05:49:55;;;;;;;1.40;1.30;;;20.20;56.50;;;;;;5015645;28;20032;-80
2022/08/30 05:52:21;;;;;;;1.42;1.33;;;20.20;56.50;;;;;;5032282;28;20083;-81
2022/08/30 05:54:58;;;;;;;1.55;1.40;;;20.10;56.50;;;;;;4999250;28;20025;-80
2022/08/30 05:57:24;;;;;;;1.63;1.35;;;20.10;56.50;;;;;;5032326;28;20029;-80
2022/08/30 05:59:49;;;;;;;1.38;1.27;;;20.20;56.50;;;;;;5033067;28;20017;-80
2022/08/30 06:02:16;;;;;;;1.45;1.35;;;20.10;56.50;;;;;;5033454;28;20120;-80
2022/08/30 06:04:41;;;;;;;1.58;1.40;;;20.10;56.50;;;;;;5015727;28;20044;-82
2022/08/30 06:07:07;;;;;;;1.48;1.38;;;20.10;56.60;;;;;;5016474;28;20529;-81
2022/08/30 06:09:33;;;;;;;2.05;1.48;;;20.10;56.60;;;;;;5015674;28;20435;-82
2022/08/30 06:11:59;;;;;;;1.30;1.20;;;20.10;56.60;;;;;;5031684;28;20060;-81
2022/08/30 06:14:24;;;;;;;1.63;1.33;;;20.10;56.60;;;;;;5015632;28;20034;-81
2022/08/30 06:16:50;;;;;;;1.52;1.42;;;20.10;56.60;;;;;;5031823;28;20450;-82
2022/08/30 06:19:17;;;;;;;1.50;1.40;;;20.10;56.60;;;;;;5015465;28;20048;-81
2022/08/30 06:21:47;;;;;;;1.63;1.30;;;20.10;56.70;;;;;;5032778;28;20551;-82
2022/08/30 06:24:13;;;;;;;1.73;1.40;;;20.10;56.70;;;;;;5031691;28;20030;-80
2022/08/30 06:26:42;;;;;;;1.35;1.25;;;20.10;56.70;;;;;;5032077;28;20458;-80
2022/08/30 06:29:10;;;;;;;1.42;1.33;;;20.10;56.70;;;;;;5031855;28;20036;-81
2022/08/30 06:31:36;;;;;;;1.70;1.27;;;20.10;56.70;;;;;;5032087;28;20049;-82
2022/08/30 06:34:03;;;;;;;1.30;1.20;;;20.10;56.70;;;;;;5015420;28;20481;-80
2022/08/30 06:36:29;;;;;;;1.25;1.17;;;20.10;56.70;;;;;;5031625;28;20036;-81
2022/08/30 06:38:56;;;;;;;1.10;1.10;;;20.10;56.80;;;;;;5032859;28;20137;-82
2022/08/30 06:41:26;;;;;;;1.52;1.30;;;20.10;56.80;;;;;;5033031;28;20033;-81
2022/08/30 06:43:52;;;;;;;1.33;1.20;;;20.10;56.80;;;;;;5032554;28;20374;-81
2022/08/30 06:46:31;;;;;;;1.75;1.30;;;20.10;56.80;;;;;;5032043;28;20462;-81
2022/08/30 06:48:58;;;;;;;1.40;1.20;;;20.10;57.00;;;;;;5032030;28;20033;-80
2022/08/30 06:51:27;;;;;;;1.30;1.20;;;20.10;56.80;;;;;;5015978;28;20022;-75
2022/08/30 06:53:53;;;;;;;1.27;1.10;;;20.10;56.90;;;;;;5031332;28;20029;-75
2022/08/30 06:56:21;;;;;;;1.50;1.35;;;20.10;56.90;;;;;;5015252;28;20060;-79
2022/08/30 06:58:47;;;;;;;1.30;1.17;;;20.10;56.90;;;;;;5031508;28;20053;-77
2022/08/30 07:01:15;;;;;;;2.22;1.40;;;20.20;57.00;;;;;;5031450;28;20087;-78
2022/08/30 07:03:41;;;;;;;1.40;1.30;;;20.10;56.90;;;;;;5031443;28;20116;-78
2022/08/30 07:06:07;;;;;;;1.10;1.02;;;20.20;57.00;;;;;;5034155;28;20024;-80
2022/08/30 07:08:34;;;;;;;1.63;1.20;;;20.20;57.00;;;;;;5036301;28;20059;-79
2022/08/30 07:11:01;;;;;;;1.60;1.15;;;20.20;57.00;;;;;;5018508;28;20034;-83
2022/08/30 07:13:27;;;;;;;1.20;1.10;;;20.20;57.00;;;;;;5018561;28;20083;-81
2022/08/30 07:15:53;;;;;;;1.10;1.10;;;20.20;57.00;;;;;;5035024;28;20029;-79
2022/08/30 07:21:10;;;;;;;1.30;1.10;;;20.20;57.00;;;;;;5035059;28;20046;-80
2022/08/30 07:23:36;;;;;;;1.10;1.00;;;20.20;57.00;;;;;;5034867;28;20029;-84
2022/08/30 07:26:07;;;;;;;1.30;1.05;;;20.20;57.00;;;;;;5018481;28;20504;-80
2022/08/30 07:28:35;;;;;;;1.25;1.15;;;20.20;57.10;;;;;;5035098;28;20022;-81
2022/08/30 07:31:01;;;;;;;1.00;1.00;;;20.20;57.00;;;;;;5018554;28;20030;-82
2022/08/30 07:33:27;;;;;;;1.48;1.10;;;20.20;57.00;;;;;;5018377;28;20108;-82
2022/08/30 07:35:52;;;;;;;1.38;1.25;;;20.30;57.10;;;;;;5018001;28;20390;-81
2022/08/30 07:38:18;;;;;;;2.90;1.27;;;20.30;57.00;;;;;;5017943;28;20057;-82
2022/08/30 07:40:44;;;;;;;1.10;1.00;;;20.30;57.00;;;;;;5034592;28;20413;-82
2022/08/30 07:43:10;;;;;;;1.25;1.15;;;20.30;57.00;;;;;;5035195;28;20047;-83
2022/08/30 07:45:37;;;;;;;1.20;1.10;;;20.30;57.00;;;;;;5018487;28;20075;-81
2022/08/30 07:48:05;;;;;;;1.27;1.00;;;20.30;57.00;;;;;;5018246;28;20076;-81
2022/08/30 07:50:31;;;;;;;1.88;1.20;;;20.40;57.00;;;;;;5034305;28;20034;-81
2022/08/30 07:52:57;;;;;;;0.82;0.82;;;20.40;57.00;;;;;;5018233;28;20083;-81
2022/08/30 07:55:23;;;;;;;1.20;1.10;;;20.40;57.00;;;;;;5018025;28;20064;-81
2022/08/30 07:57:49;;;;;;;1.40;1.20;;;20.40;57.00;;;;;;5017794;28;20075;-86
2022/08/30 08:00:15;;;;;;;1.95;1.00;;;20.40;57.00;;;;;;5017771;28;20121;-81
2022/08/30 08:02:41;;;;;;;1.27;1.17;;;20.40;57.00;;;;;;5017966;28;20053;-83
2022/08/30 08:05:08;;;;;;;1.58;1.15;;;20.40;56.90;;;;;;5034398;28;20064;-82
2022/08/30 08:07:34;;;;;;;1.35;1.20;;;20.50;57.00;;;;;;5002235;28;20034;-82
2022/08/30 08:10:01;;;;;;;1.02;1.00;;;20.50;57.00;;;;;;5034074;28;20033;-81
2022/08/30 08:12:27;;;;;;;0.90;0.90;;;20.50;56.90;;;;;;5034595;28;20088;-80
2022/08/30 08:14:53;;;;;;;1.73;1.25;;;20.50;56.90;;;;;;5017543;28;20030;-81
2022/08/30 08:17:18;;;;;;;1.08;0.98;;;20.50;56.90;;;;;;5033094;28;20139;-85
2022/08/30 08:19:44;;;;;;;0.90;0.90;;;20.50;56.90;;;;;;5034111;28;20486;-85
2022/08/30 08:22:10;;;;;;;1.75;1.02;;;20.60;57.00;;;;;;5017401;28;20500;-79
2022/08/30 08:24:36;;;;;;;1.10;1.00;;;20.60;56.90;;;;;;5034757;28;20033;-77
2022/08/30 08:27:02;;;;;;;0.82;0.80;;;20.60;56.90;;;;;;5017284;28;20450;-83
2022/08/30 08:29:27;;;;;;;1.20;1.00;;;20.60;56.90;;;;;;5017877;28;20040;-80
2022/08/30 08:31:53;;;;;;;1.20;1.10;;;20.70;56.80;;;;;;5000892;28;20034;-83
2022/08/30 08:34:22;;;;;;;0.90;0.90;;;20.70;56.80;;;;;;5034573;28;20501;-82
2022/08/30 08:36:49;;;;;;;0.80;0.80;;;20.70;56.70;;;;;;5017648;28;20029;-83
2022/08/30 08:39:15;;;;;;;1.30;0.90;;;20.80;56.70;;;;;;5033304;28;20052;-83
2022/08/30 08:42:03;;;;;;;0.95;0.80;;;20.80;56.70;;;;;;5017186;28;20044;-84
2022/08/30 08:44:38;;;;;;;1.55;1.00;;;20.90;56.60;;;;;;5033352;28;20546;-87
2022/08/30 08:47:17;;;;;;;1.17;0.85;;;20.90;56.50;;;;;;5033635;28;20429;-82
2022/08/30 08:49:46;;;;;;;1.30;1.20;;;21.00;57.10;;;;;;5033517;28;20382;-83
2022/08/30 08:55:32;;;;;;;0.90;0.90;;;21.10;56.40;;;;;;5032940;28;20030;-83
2022/08/30 08:57:58;;;;;;;1.40;1.05;;;21.10;56.70;;;;;;5034698;28;20075;-84
2022/08/30 09:00:23;;;;;;;1.00;0.90;;;21.20;56.10;;;;;;5017071;28;20044;-84
2022/08/30 09:02:57;;;;;;;1.08;0.90;;;21.20;56.00;;;;;;5001298;28;20030;-83
2022/08/30 09:05:26;;;;;;;1.15;1.05;;;21.30;56.00;;;;;;5034135;28;20038;-87
2022/08/30 09:08:01;;;;;;;1.10;1.00;;;21.40;55.90;;;;;;5034351;28;20021;-83
2022/08/30 09:10:30;;;;;;;0.80;0.80;;;21.40;55.80;;;;;;5034098;28;20112;-83
2022/08/30 09:12:56;;;;;;;0.80;0.80;;;21.50;55.60;;;;;;5016880;28;20052;-81
2022/08/30 09:15:29;;;;;;;1.65;1.08;;;21.50;55.50;;;;;;5016586;28;20030;-81
2022/08/30 09:18:01;;;;;;;0.95;0.90;;;21.60;55.50;;;;;;5033725;28;20528;-81
2022/08/30 09:20:31;;;;;;;1.13;1.00;;;21.70;55.40;;;;;;5034345;28;20080;-83
2022/08/30 09:22:57;;;;;;;0.95;0.90;;;21.70;55.30;;;;;;5032590;28;20440;-81
2022/08/30 09:25:29;;;;;;;2.25;1.40;;;21.80;55.20;;;;;;5034007;28;20071;-80
2022/08/30 09:28:14;;;;;;;1.20;1.10;;;21.90;55.20;;;;;;5032869;28;20025;-79
2022/08/30 09:30:58;;;;;;;1.45;1.02;;;22.00;55.10;;;;;;5016267;28;20030;-83
2022/08/30 09:33:24;;;;;;;1.25;0.90;;;22.10;55.10;;;;;;5032898;28;20112;-78
2022/08/30 09:35:51;;;;;;;1.05;0.88;;;22.10;54.80;;;;;;5016421;28;20054;-80
2022/08/30 09:38:28;;;;;;;0.70;0.70;;;22.20;54.80;;;;;;5032358;28;20072;-79
2022/08/30 09:40:57;;;;;;;1.10;1.00;;;22.30;54.80;;;;;;5032632;28;20041;-80
2022/08/30 09:43:25;;;;;;;0.88;0.85;;;22.40;54.70;;;;;;5032676;28;20402;-82
2022/08/30 09:46:00;;;;;;;0.98;0.88;;;22.40;54.70;;;;;;5032523;28;20079;-80
2022/08/30 09:48:25;;;;;;;1.73;0.90;;;22.50;54.60;;;;;;5032245;28;20030;-82
2022/08/30 09:51:09;;;;;;;0.80;0.80;;;22.60;54.50;;;;;;5016735;28;20116;-85
2022/08/30 09:53:46;;;;;;;0.88;0.88;;;22.60;54.50;;;;;;5033569;28;20037;-85
2022/08/30 09:56:30;;;;;;;1.63;0.93;;;22.70;54.30;;;;;;5033302;28;20049;-84
2022/08/30 09:59:26;;;;;;;1.13;0.93;;;22.80;54.30;;;;;;5033986;28;20113;-86
2022/08/30 10:02:18;;;;;;;1.20;0.98;;;22.90;54.20;;;;;;5033110;28;20068;-86
2022/08/30 10:04:55;;;;;;;1.33;0.88;;;22.90;54.10;;;;;;5034301;28;20045;-84
2022/08/30 10:07:56;;;;;;;2.15;0.90;;;23.00;53.90;;;;;;5032665;28;20060;-83
2022/08/30 10:10:48;;;;;;;1.15;1.00;;;23.10;53.90;;;;;;5033679;28;20517;-84
2022/08/30 10:13:35;;;;;;;1.38;0.90;;;23.20;53.80;;;;;;5032943;28;20151;-79
2022/08/30 10:16:42;;;;;;;0.88;0.80;;;23.20;53.60;;;;;;5032844;28;20034;-85
2022/08/30 10:19:08;;;;;;;0.80;0.75;;;23.30;53.50;;;;;;5012273;28;20036;-82
2022/08/30 10:21:39;;;;;;;1.77;0.90;;;23.40;53.40;;;;;;5027699;28;20136;-82
2022/08/30 10:24:10;;;;;;;1.92;1.10;;;23.50;53.40;;;;;;5032208;28;20462;-82
2022/08/30 10:26:52;;;;;;;2.00;1.02;;;23.50;53.30;;;;;;5015745;28;20493;-81
2022/08/30 10:29:41;;;;;;;1.02;0.93;;;23.60;53.20;;;;;;5037686;28;20025;-83
2022/08/30 10:32:34;;;;;;;1.17;0.90;;;23.70;53.20;;;;;;5031783;28;20033;-81
2022/08/30 10:35:21;;;;;;;0.80;0.80;;;23.80;53.00;;;;;;5032367;28;20421;-84
2022/08/30 10:38:09;;;;;;;0.73;0.73;;;23.80;52.90;;;;;;5032216;28;20030;-81
2022/08/30 10:43:49;;;;;;;0.90;0.90;;;24.00;52.70;;;;;;5036897;28;20108;-80
2022/08/30 10:46:38;;;;;;;0.85;0.85;;;24.10;52.70;;;;;;5037064;28;20061;-80
2022/08/30 10:49:12;;;;;;;0.82;0.80;;;24.20;52.70;;;;;;5036537;28;20038;-83
2022/08/30 10:51:45;;;;;;;;;;;24.30;52.50;;;;;;5037007;28;20030;-85
2022/08/30 10:55:07;;;;;;;0.70;0.70;;;24.30;52.40;;;;;;5037117;28;20004;-81
2022/08/30 10:57:33;;;;;;;1.85;0.90;;;24.40;52.50;;;;;;5034155;28;20060;-82
2022/08/30 11:00:07;;;;;;;1.58;1.10;;;24.40;52.20;;;;;;5017841;28;20041;-81
2022/08/30 11:02:52;;;;;;;;;;;24.50;52.30;;;;;;5036124;28;20030;-84
2022/08/30 11:05:46;;;;;;;0.90;0.90;;;24.60;52.20;;;;;;5035615;28;19916;-81
2022/08/30 11:08:39;;;;;;;0.77;0.77;;;24.60;52.10;;;;;;5035161;28;20113;-81
2022/08/30 11:11:28;;;;;;;1.13;1.00;;;24.60;52.10;;;;;;5018883;28;20577;-82
2022/08/30 11:13:55;;;;;;;1.33;0.80;;;24.70;52.10;;;;;;5035561;28;20065;-83
2022/08/30 11:16:42;;;;;;;1.23;0.88;;;24.80;52.10;;;;;;5035268;28;20029;-81
2022/08/30 11:19:48;;;;;;;1.33;0.90;;;24.80;52.10;;;;;;5036355;28;20091;-82
2022/08/30 11:22:21;;;;;;;1.63;1.13;;;24.80;52.10;;;;;;5018709;28;20068;-81
2022/08/30 11:25:13;;;;;;;1.02;0.80;;;24.90;52.00;;;;;;5037030;28;20433;-82
2022/08/30 11:27:44;;;;;;;0.73;0.73;;;25.00;52.20;;;;;;5037062;28;20033;-79
2022/08/30 11:30:25;;;;;;;0.90;0.90;;;25.10;52.10;;;;;;5036411;28;20033;-79
2022/08/30 11:33:04;;;;;;;1.05;0.95;;;25.10;52.20;;;;;;5034874;28;20462;-79
2022/08/30 11:35:43;;;;;;;1.27;1.00;;;25.10;52.10;;;;;;5035930;28;20021;-79
2022/08/30 11:38:18;;;;;;;0.85;0.80;;;25.10;52.10;;;;;;5035741;28;20509;-80
2022/08/30 11:40:48;;;;;;;1.45;0.90;;;25.20;52.20;;;;;;5035001;28;20033;-79
2022/08/30 11:43:43;;;;;;;1.17;0.80;;;25.20;52.20;;;;;;5034965;28;20038;-79
2022/08/30 11:46:27;;;;;;;1.15;1.05;;;25.30;52.40;;;;;;5035942;28;20037;-79
2022/08/30 11:49:13;;;;;;;1.63;1.10;;;25.30;52.30;;;;;;5035174;28;20032;-82
2022/08/30 11:51:58;;;;;;;0.77;0.70;;;25.40;52.30;;;;;;5033615;28;20264;-81
2022/08/30 11:54:49;;;;;;;1.45;0.80;;;25.40;52.30;;;;;;5018128;28;20447;-79
2022/08/30 11:57:30;;;;;;;1.30;0.80;;;25.40;52.30;;;;;;5034862;28;20064;-78
2022/08/30 12:00:17;;;;;;;1.27;0.73;;;25.40;52.10;;;;;;5034631;28;20442;-77
2022/08/30 12:02:55;;;;;;;1.00;0.80;;;25.40;52.10;;;;;;5036003;28;20045;-81
2022/08/30 12:05:39;;;;;;;0.73;0.73;;;25.50;52.10;;;;;;5034168;28;20033;-77
2022/08/30 12:08:27;;;;;;;0.93;0.70;;;25.50;52.10;;;;;;5035264;28;20363;-81
2022/08/30 12:10:59;;;;;;;0.80;0.80;;;25.50;52.10;;;;;;5035175;28;20029;-78
2022/08/30 12:13:35;;;;;;;1.50;0.93;;;25.50;51.90;;;;;;5034894;28;20049;-78
2022/08/30 12:16:03;;;;;;;1.65;0.82;;;25.60;51.90;;;;;;5034016;28;20025;-78
2022/08/30 12:18:49;;;;;;;2.88;1.10;;;25.60;51.80;;;;;;5035355;28;20017;-81
2022/08/30 12:21:21;;;;;;;1.13;0.73;;;25.60;51.80;;;;;;5033959;28;20041;-78
2022/08/30 12:23:59;;;;;;;0.85;0.80;;;25.60;51.70;;;;;;5034193;28;20033;-79
2022/08/30 12:26:24;;;;;;;1.52;0.80;;;25.60;51.70;;;;;;5034294;28;20037;-80
2022/08/30 12:29:10;;;;;;;0.70;0.70;;;25.70;51.70;;;;;;5033806;28;20025;-80
2022/08/30 12:31:48;;;;;;;0.93;0.80;;;25.60;51.60;;;;;;5046576;28;20101;-81
2022/08/30 12:34:30;;;;;;;0.93;0.88;;;25.70;51.50;;;;;;5034621;28;20022;-77
2022/08/30 12:36:58;;;;;;;0.73;0.73;;;25.70;51.40;;;;;;5034017;28;20042;-79
2022/08/30 12:39:30;;;;;;;0.68;0.68;;;25.70;51.30;;;;;;5033467;28;20102;-78
2022/08/30 12:42:13;;;;;;;1.25;0.98;;;25.70;51.30;;;;;;5034456;28;20029;-79
2022/08/30 12:44:39;;;;;;;2.30;1.08;;;25.80;51.40;;;;;;5034449;28;20037;-80
2022/08/30 12:47:07;;;;;;;1.08;0.98;;;25.80;51.30;;;;;;5017202;28;20025;-80
2022/08/30 12:49:35;;;;;;;2.55;1.00;;;25.80;51.30;;;;;;5017369;28;20034;-79
2022/08/30 12:52:30;;;;;;;1.17;0.88;;;25.80;51.20;;;;;;5033210;28;20037;-83
2022/08/30 12:55:12;;;;;;;1.10;0.90;;;25.80;51.30;;;;;;5034983;28;20033;-80
2022/08/30 12:57:53;;;;;;;0.98;0.75;;;25.80;51.10;;;;;;5035506;28;20057;-82
2022/08/30 13:00:32;;;;;;;0.88;0.82;;;25.80;51.10;;;;;;5033554;28;20060;-80
2022/08/30 13:03:02;;;;;;;1.05;0.95;;;25.80;51.10;;;;;;5032713;28;20493;-80
2022/08/30 13:05:40;;;;;;;0.70;0.70;;;25.90;51.00;;;;;;5033497;28;20025;-80
2022/08/30 13:08:19;;;;;;;1.00;0.90;;;25.90;51.00;;;;;;5033427;28;20033;-79
2022/08/30 13:11:02;;;;;;;0.93;0.90;;;25.90;51.00;;;;;;5032943;28;20107;-80
2022/08/30 13:13:32;;;;;;;0.70;0.70;;;25.90;50.90;;;;;;5032988;28;20108;-79
2022/08/30 13:16:26;;;;;;;0.85;0.75;;;25.90;50.80;;;;;;5034248;28;20171;-79